createdAt,value
2022-09-05T00:01:52.242Z,65.60
2022-09-05T00:04:26.962Z,65.97
2022-09-05T00:07:31.174Z,65.45
2022-09-05T00:10:15.184Z,65.61
2022-09-05T00:12:42.739Z,66.34
2022-09-05T00:15:21.188Z,66.41
2022-09-05T00:19:19.166Z,65.84
2022-09-05T00:24:21.665Z,66.25
2022-09-05T00:24:35.151Z,66.27
2022-09-05T00:27:13.535Z,66.51
2022-09-05T00:31:51.477Z,66.14
2022-09-05T00:33:02.564Z,66.67
2022-09-05T00:35:53.620Z,66.68
2022-09-05T00:38:30.489Z,66.78
2022-09-05T00:41:13.693Z,67.23
2022-09-05T00:43:46.256Z,67.18
2022-09-05T00:46:31.855Z,67.20
2022-09-05T00:49:15.474Z,67.17
2022-09-05T00:51:47.944Z,67.45
2022-09-05T00:54:32.621Z,67.65
2022-09-05T00:57:39.630Z,67.02
2022-09-05T01:00:16.960Z,67.43
2022-09-05T01:03:12.432Z,67.77
2022-09-05T01:06:01.014Z,67.54
2022-09-05T01:09:07.707Z,67.33
2022-09-05T01:11:38.365Z,67.96
2022-09-05T01:14:20.389Z,67.90
2022-09-05T01:17:27.502Z,67.49
2022-09-05T01:20:19.710Z,68.17
2022-09-05T01:23:24.748Z,68.07
2022-09-05T01:25:58.841Z,67.79
2022-09-05T01:29:18.716Z,67.98
2022-09-05T01:31:45.836Z,67.99
2022-09-05T01:34:18.870Z,68.32
2022-09-05T01:37:00.473Z,68.33
2022-09-05T01:40:14.273Z,68.28
2022-09-05T01:42:39.192Z,68.39
2022-09-05T01:45:39.450Z,68.72
2022-09-05T01:48:31.036Z,68.40
2022-09-05T01:51:35.211Z,68.53
2022-09-05T01:54:23.747Z,68.82
2022-09-05T01:57:19.427Z,69.07
2022-09-05T01:59:57.026Z,68.83
2022-09-05T02:02:50.501Z,69.11
2022-09-05T02:05:49.184Z,69.22
2022-09-05T02:08:16.409Z,69.03
2022-09-05T02:10:49.052Z,69.27
2022-09-05T02:13:41.136Z,69.42
2022-09-05T02:16:29.074Z,69.72
2022-09-05T02:22:01.095Z,70.13
2022-09-05T02:24:38.539Z,69.92
2022-09-05T02:27:43.639Z,69.80
2022-09-05T02:30:18.075Z,70.31
2022-09-05T02:32:51.656Z,70.25
2022-09-05T02:35:30.689Z,70.59
2022-09-05T02:43:51.884Z,70.69
2022-09-05T02:45:14.494Z,70.63
2022-09-05T02:45:16.411Z,70.99
2022-09-05T02:47:23.486Z,71.22
2022-09-05T02:53:57.821Z,71.13
2022-09-05T02:57:34.739Z,71.70
2022-09-05T02:57:35.749Z,71.71
2022-09-05T02:59:25.860Z,71.13
2022-09-05T03:02:26.360Z,71.71
2022-09-05T03:04:53.540Z,71.69
2022-09-05T03:07:56.275Z,72.04
2022-09-05T03:10:53.770Z,72.42
2022-09-05T03:13:30.914Z,72.04
2022-09-05T03:16:47.574Z,72.22
2022-09-05T03:19:31.483Z,72.49
2022-09-05T03:22:37.015Z,72.14
2022-09-05T03:25:21.923Z,72.86
2022-09-05T03:28:07.246Z,72.64
2022-09-05T03:31:21.998Z,73.28
2022-09-05T03:34:01.771Z,73.34
2022-09-05T03:36:40.523Z,73.01
2022-09-05T03:39:28.723Z,73.07
2022-09-05T03:42:14.731Z,73.32
2022-09-05T03:45:00.511Z,73.42
2022-09-05T03:47:53.958Z,73.37
2022-09-05T03:57:20.204Z,72.85
2022-09-05T03:57:25.240Z,73.24
2022-09-05T03:57:28.411Z,73.57
2022-09-05T04:00:23.800Z,73.39
2022-09-05T04:08:07.189Z,73.51
2022-09-05T04:08:30.677Z,73.71
2022-09-05T04:08:57.209Z,73.68
2022-09-05T04:11:31.707Z,73.86
2022-09-05T04:14:02.875Z,73.72
2022-09-05T04:16:32.958Z,73.69
2022-09-05T04:19:20.016Z,73.99
2022-09-05T04:21:51.026Z,73.67
2022-09-05T04:24:45.526Z,74.01
2022-09-05T04:27:21.118Z,73.91
2022-09-05T04:30:39.057Z,73.93
2022-09-05T04:33:11.434Z,73.72
2022-09-05T04:35:57.024Z,73.74
2022-09-05T04:38:39.305Z,73.97
2022-09-05T04:41:21.374Z,73.68
2022-09-05T04:44:13.091Z,74.09
2022-09-05T04:47:02.552Z,73.99
2022-09-05T04:49:33.464Z,73.63
2022-09-05T04:52:13.338Z,74.05
2022-09-05T04:54:53.229Z,73.92
2022-09-05T04:57:35.533Z,74.04
2022-09-05T05:02:59.718Z,74.03
2022-09-05T05:06:08.546Z,73.76
2022-09-05T05:06:09.419Z,73.85
2022-09-05T05:08:48.703Z,74.37
2022-09-05T05:17:29.899Z,73.69
2022-09-05T05:18:06.876Z,73.80
2022-09-05T05:18:08.291Z,74.05
2022-09-05T05:20:40.018Z,74.25
2022-09-05T05:23:31.761Z,74.45
2022-09-05T05:26:01.097Z,74.25
2022-09-05T05:28:49.453Z,74.70
2022-09-05T05:31:22.299Z,74.51
2022-09-05T05:33:52.616Z,74.57
2022-09-05T05:36:28.468Z,74.72
2022-09-05T05:38:57.424Z,74.96
2022-09-05T05:41:44.323Z,74.74
2022-09-05T05:44:16.472Z,74.92
2022-09-05T05:46:47.895Z,74.86
2022-09-05T05:49:28.674Z,74.88
2022-09-05T05:52:13.948Z,74.40
2022-09-05T05:54:51.100Z,74.65
2022-09-05T05:57:39.939Z,74.70
2022-09-05T06:00:40.666Z,75.00
2022-09-05T06:03:49.149Z,74.89
2022-09-05T06:06:47.258Z,74.15
2022-09-05T06:14:54.742Z,74.43
2022-09-05T06:14:57.016Z,73.60
2022-09-05T06:16:01.810Z,73.71
2022-09-05T06:19:04.397Z,73.20
2022-09-05T06:22:10.528Z,72.34
2022-09-05T06:24:53.898Z,72.16
2022-09-05T06:28:07.147Z,72.08
2022-09-05T06:30:47.865Z,71.58
2022-09-05T06:33:45.922Z,71.30
2022-09-05T06:36:23.359Z,70.96
2022-09-05T06:39:15.479Z,70.80
2022-09-05T06:42:10.880Z,70.34
2022-09-05T06:45:30.203Z,69.73
2022-09-05T06:48:08.015Z,69.94
2022-09-05T06:51:07.879Z,69.22
2022-09-05T06:53:50.686Z,68.92
2022-09-05T06:56:48.447Z,68.60
2022-09-05T06:59:39.430Z,68.16
2022-09-05T07:02:59.555Z,67.83
2022-09-05T07:05:38.010Z,67.63
2022-09-05T07:08:25.133Z,66.98
2022-09-05T07:11:15.928Z,67.11
2022-09-05T07:13:53.039Z,66.41
2022-09-05T07:16:37.527Z,66.17
2022-09-05T07:19:12.372Z,65.96
2022-09-05T07:21:43.128Z,65.64
2022-09-05T07:24:18.673Z,65.59
2022-09-05T07:27:03.132Z,65.14
2022-09-05T07:29:35.305Z,64.57
2022-09-05T07:32:05.776Z,64.52
2022-09-05T07:34:34.656Z,64.14
2022-09-05T07:37:14.535Z,64.05
2022-09-05T07:39:54.775Z,63.85
2022-09-05T07:42:30.534Z,63.14
2022-09-05T07:45:02.021Z,63.29
2022-09-05T07:47:58.695Z,63.34
2022-09-05T07:51:24.922Z,63.10
2022-09-05T07:56:55.052Z,63.04
2022-09-05T07:57:02.077Z,62.50
2022-09-05T07:58:53.771Z,62.36
2022-09-05T08:01:22.614Z,62.21
2022-09-05T08:03:55.374Z,61.39
2022-09-05T08:07:34.340Z,61.05
2022-09-05T08:10:05.594Z,60.30
2022-09-05T08:12:16.083Z,59.73
2022-09-05T08:15:03.792Z,58.96
2022-09-05T08:17:31.279Z,58.69
2022-09-05T08:20:09.298Z,58.30
2022-09-05T08:23:06.212Z,57.75
2022-09-05T08:25:58.640Z,57.45
2022-09-05T08:28:39.042Z,57.82
2022-09-05T08:31:20.152Z,57.53
2022-09-05T08:33:48.462Z,57.75
2022-09-05T08:36:26.378Z,57.56
2022-09-05T08:38:53.336Z,57.19
2022-09-05T08:41:49.284Z,57.36
2022-09-05T08:46:36.065Z,56.54
2022-09-05T08:47:18.583Z,56.24
2022-09-05T08:50:12.184Z,55.61
2022-09-05T08:52:38.749Z,55.61
2022-09-05T08:55:17.179Z,55.42
2022-09-05T08:57:47.146Z,54.45
2022-09-05T09:00:19.159Z,53.87
2022-09-05T09:03:04.034Z,53.19
2022-09-05T09:06:12.536Z,52.72
2022-09-05T09:08:46.167Z,52.92
2022-09-05T09:11:27.972Z,51.70
2022-09-05T09:14:16.429Z,51.42
2022-09-05T09:17:18.983Z,51.26
2022-09-05T09:20:17.967Z,51.05
2022-09-05T09:23:38.864Z,49.86
2022-09-05T09:26:17.773Z,50.23
2022-09-05T09:28:49.352Z,50.30
2022-09-05T09:31:43.558Z,49.63
2022-09-05T09:34:39.632Z,48.72
2022-09-05T09:37:49.850Z,48.66
2022-09-05T09:41:02.298Z,48.36
2022-09-05T09:43:53.412Z,47.86
2022-09-05T09:46:45.566Z,47.55
2022-09-05T09:49:23.017Z,47.66
2022-09-05T09:52:05.476Z,46.17
2022-09-05T09:54:54.137Z,46.02
2022-09-05T09:57:25.972Z,44.88
2022-09-05T09:59:55.642Z,44.70
2022-09-05T10:06:43.730Z,44.76
2022-09-05T10:10:48.841Z,42.45
2022-09-05T10:10:49.771Z,43.74
2022-09-05T10:11:53.756Z,42.42
2022-09-05T10:14:49.408Z,41.53
2022-09-05T10:17:53.322Z,40.94
2022-09-05T10:21:15.291Z,40.28
2022-09-05T10:23:52.436Z,38.89
2022-09-05T10:26:40.340Z,38.73
2022-09-05T10:29:34.716Z,38.28
2022-09-05T10:35:04.547Z,37.81
2022-09-05T10:35:13.321Z,36.95
2022-09-05T10:37:57.803Z,36.08
2022-09-05T10:40:25.907Z,35.96
2022-09-05T10:43:01.016Z,35.90
2022-09-05T10:45:53.339Z,35.18
2022-09-05T10:48:26.723Z,34.75
2022-09-05T10:51:01.873Z,33.89
2022-09-05T10:53:49.956Z,33.67
2022-09-05T10:56:26.170Z,33.67
2022-09-05T11:01:38.968Z,33.82
2022-09-05T11:02:26.177Z,33.27
2022-09-05T11:05:06.850Z,33.52
2022-09-05T11:07:51.386Z,33.15
2022-09-05T11:10:20.612Z,32.63
2022-09-05T11:13:10.797Z,32.65
2022-09-05T11:16:12.713Z,32.48
2022-09-05T11:18:57.632Z,32.41
2022-09-05T11:21:52.730Z,32.06
2022-09-05T11:24:50.153Z,32.03
2022-09-05T11:27:32.331Z,31.76
2022-09-05T11:30:29.640Z,31.68
2022-09-05T11:39:54.949Z,31.58
2022-09-05T11:40:09.883Z,31.17
2022-09-05T11:40:28.993Z,31.18
2022-09-05T11:42:39.448Z,31.11
2022-09-05T11:45:17.430Z,30.86
2022-09-05T11:47:50.145Z,30.89
2022-09-05T11:50:57.590Z,31.24
2022-09-05T11:53:39.423Z,31.17
2022-09-05T11:56:29.021Z,30.90
2022-09-05T11:59:04.918Z,30.85
2022-09-05T12:01:50.704Z,30.95
2022-09-05T12:04:20.430Z,30.76
2022-09-05T12:07:25.227Z,31.17
2022-09-05T12:13:26.534Z,31.30
2022-09-05T12:16:08.545Z,31.15
2022-09-05T12:18:44.184Z,31.13
2022-09-05T12:21:24.231Z,31.30
2022-09-05T12:25:15.219Z,31.13
2022-09-05T12:27:41.628Z,31.10
2022-09-05T12:29:46.927Z,31.21
2022-09-05T12:34:10.099Z,31.40
2022-09-05T12:36:07.543Z,30.63
2022-09-05T12:40:44.887Z,30.98
2022-09-05T12:41:40.698Z,30.65
2022-09-05T12:42:08.440Z,31.68
2022-09-05T12:44:42.090Z,31.04
2022-09-05T12:47:20.523Z,31.17
2022-09-05T12:50:17.059Z,30.79
2022-09-05T12:52:53.931Z,30.47
2022-09-05T12:55:33.449Z,30.59
2022-09-05T13:02:56.547Z,30.12
2022-09-05T13:03:08.335Z,30.61
2022-09-05T13:03:59.675Z,29.84
2022-09-05T13:06:35.926Z,29.98
2022-09-05T13:09:10.396Z,30.01
2022-09-05T13:14:53.083Z,30.15
2022-09-05T13:14:53.535Z,30.36
2022-09-05T13:17:43.061Z,29.88
2022-09-05T13:20:36.896Z,30.52
2022-09-05T13:23:28.739Z,31.24
2022-09-05T13:26:10.351Z,30.53
2022-09-05T13:28:46.428Z,30.48
2022-09-05T13:38:00.649Z,29.71
2022-09-05T13:38:00.698Z,30.08
2022-09-05T13:38:21.302Z,29.74
2022-09-05T13:40:10.397Z,29.71
2022-09-05T13:42:44.300Z,30.12
2022-09-05T13:45:18.649Z,29.83
2022-09-05T13:48:00.474Z,29.81
2022-09-05T13:50:37.683Z,29.40
2022-09-05T13:53:26.321Z,29.16
2022-09-05T13:56:02.937Z,29.80
2022-09-05T13:58:56.814Z,29.34
2022-09-05T14:01:58.725Z,29.75
2022-09-05T14:05:20.275Z,28.99
2022-09-05T14:08:18.988Z,28.66
2022-09-05T14:11:00.435Z,28.78
2022-09-05T14:13:32.655Z,28.40
2022-09-05T14:16:07.638Z,28.33
2022-09-05T14:19:03.906Z,28.02
2022-09-05T14:21:33.405Z,27.86
2022-09-05T14:24:27.787Z,28.18
2022-09-05T14:27:03.094Z,27.59
2022-09-05T14:29:38.969Z,27.85
2022-09-05T14:37:51.400Z,28.40
2022-09-05T14:37:52.712Z,28.37
2022-09-05T14:38:16.111Z,28.63
2022-09-05T14:41:10.462Z,28.53
2022-09-05T14:43:56.223Z,28.57
2022-09-05T14:46:45.564Z,28.70
2022-09-05T14:49:40.627Z,28.83
2022-09-05T14:52:24.329Z,29.22
2022-09-05T15:01:46.221Z,29.09
2022-09-05T15:02:41.912Z,29.22
2022-09-05T15:06:28.202Z,30.04
2022-09-05T15:11:29.535Z,30.16
2022-09-05T15:12:20.773Z,30.05
2022-09-05T15:14:36.504Z,30.03
2022-09-05T15:17:05.242Z,29.75
2022-09-05T15:20:08.771Z,29.60
2022-09-05T15:22:42.099Z,29.26
2022-09-05T15:25:20.325Z,30.24
2022-09-05T15:27:49.642Z,29.00
2022-09-05T15:30:36.000Z,28.65
2022-09-05T15:33:30.042Z,29.05
2022-09-05T15:35:58.448Z,28.61
2022-09-05T15:38:37.900Z,29.08
2022-09-05T15:41:21.186Z,29.18
2022-09-05T15:44:09.984Z,29.39
2022-09-05T15:46:56.113Z,29.81
2022-09-05T15:49:55.711Z,30.11
2022-09-05T15:52:27.324Z,30.05
2022-09-05T15:55:22.309Z,30.44
2022-09-05T15:57:58.412Z,30.73
2022-09-05T16:00:34.212Z,30.61
2022-09-05T16:03:55.254Z,30.63
2022-09-05T16:10:29.415Z,30.67
2022-09-05T16:10:48.476Z,29.89
2022-09-05T16:14:32.008Z,30.47
2022-09-05T16:23:16.570Z,30.33
2022-09-05T16:23:30.080Z,30.71
2022-09-05T16:23:33.601Z,30.59
2022-09-05T16:26:11.106Z,31.52
2022-09-05T16:29:25.231Z,31.33
2022-09-05T16:32:06.266Z,31.42
2022-09-05T16:34:49.844Z,31.86
2022-09-05T16:37:39.152Z,32.10
2022-09-05T16:40:13.978Z,32.49
2022-09-05T16:42:47.736Z,32.61
2022-09-05T16:45:45.745Z,32.34
2022-09-05T16:48:34.509Z,32.23
2022-09-05T16:51:34.859Z,32.36
2022-09-05T16:54:29.161Z,32.12
2022-09-05T16:57:20.291Z,31.98
2022-09-05T16:59:47.961Z,32.81
2022-09-05T17:02:39.594Z,32.27
2022-09-05T17:05:19.214Z,32.85
2022-09-05T17:08:11.013Z,32.84
2022-09-05T17:10:57.911Z,32.79
2022-09-05T17:13:48.528Z,33.57
2022-09-05T17:16:43.065Z,33.35
2022-09-05T17:19:22.274Z,33.65
2022-09-05T17:29:17.525Z,33.63
2022-09-05T17:29:24.040Z,33.91
2022-09-05T17:29:36.338Z,34.03
2022-09-05T17:31:48.847Z,34.72
2022-09-05T17:33:45.593Z,34.50
2022-09-05T17:36:19.715Z,35.02
2022-09-05T17:39:07.975Z,34.65
2022-09-05T17:41:46.953Z,34.89
2022-09-05T17:44:19.789Z,34.78
2022-09-05T17:47:01.370Z,34.74
2022-09-05T17:49:45.388Z,34.67
2022-09-05T17:52:33.357Z,34.44
2022-09-05T17:55:00.191Z,34.59
2022-09-05T17:57:26.859Z,34.92
2022-09-05T17:59:57.720Z,34.83
2022-09-05T18:02:26.658Z,35.15
2022-09-05T18:04:54.512Z,34.98
2022-09-05T18:07:28.647Z,35.60
2022-09-05T18:10:12.985Z,35.55
2022-09-05T18:13:14.295Z,35.78
2022-09-05T18:15:34.769Z,35.76
2022-09-05T18:18:38.420Z,35.80
2022-09-05T18:21:12.572Z,36.17
2022-09-05T18:23:54.832Z,36.77
2022-09-05T18:26:23.661Z,36.84
2022-09-05T18:29:02.914Z,36.88
2022-09-05T18:31:41.599Z,36.74
2022-09-05T18:34:21.472Z,37.00
2022-09-05T18:36:58.620Z,37.39
2022-09-05T18:39:29.521Z,37.54
2022-09-05T18:42:33.463Z,37.62
2022-09-05T18:45:15.253Z,38.14
2022-09-05T18:48:00.148Z,38.30
2022-09-05T18:50:32.532Z,38.09
2022-09-05T18:53:08.882Z,38.40
2022-09-05T18:56:13.445Z,38.64
2022-09-05T18:58:34.149Z,38.68
2022-09-05T19:01:22.308Z,38.74
2022-09-05T19:03:53.853Z,39.48
2022-09-05T19:06:35.943Z,39.28
2022-09-05T19:09:14.574Z,39.26
2022-09-05T19:11:58.080Z,39.47
2022-09-05T19:14:53.608Z,40.03
2022-09-05T19:17:32.071Z,40.10
2022-09-05T19:20:31.933Z,39.72
2022-09-05T19:23:11.853Z,40.19
2022-09-05T19:25:42.587Z,40.48
2022-09-05T19:30:53.762Z,40.51
2022-09-05T19:37:03.614Z,40.93
2022-09-05T19:37:12.160Z,41.06
2022-09-05T19:37:29.716Z,40.95
2022-09-05T19:47:31.136Z,40.96
2022-09-05T19:47:35.722Z,40.87
2022-09-05T19:47:36.182Z,40.69
2022-09-05T19:48:26.050Z,40.79
2022-09-05T19:50:57.675Z,41.48
2022-09-05T19:53:24.920Z,41.06
2022-09-05T19:55:52.448Z,41.47
2022-09-05T19:58:21.106Z,40.93
2022-09-05T20:01:00.481Z,41.40
2022-09-05T20:03:30.479Z,41.38
2022-09-05T20:06:29.793Z,41.89
2022-09-05T20:09:16.261Z,41.84
2022-09-05T20:11:53.643Z,41.86
2022-09-05T20:14:24.976Z,42.40
2022-09-05T20:16:54.540Z,42.16
2022-09-05T20:19:34.110Z,42.25
2022-09-05T20:22:40.397Z,42.08
2022-09-05T20:24:56.101Z,42.22
2022-09-05T20:27:27.397Z,42.81
2022-09-05T20:29:58.149Z,42.35
2022-09-05T20:32:39.919Z,42.55
2022-09-05T20:39:03.946Z,42.94
2022-09-05T20:43:11.277Z,42.44
2022-09-05T20:43:23.650Z,42.66
2022-09-05T20:43:58.140Z,42.83
2022-09-05T20:53:49.257Z,42.84
2022-09-05T20:54:07.816Z,43.07
2022-09-05T20:54:27.376Z,42.89
2022-09-05T20:55:39.977Z,42.77
2022-09-05T20:58:13.325Z,42.80
2022-09-05T21:01:15.659Z,43.43
2022-09-05T21:03:36.858Z,43.20
2022-09-05T21:06:22.717Z,43.00
2022-09-05T21:08:56.155Z,43.52
2022-09-05T21:11:31.605Z,43.44
2022-09-05T21:14:02.333Z,43.60
2022-09-05T21:16:31.595Z,43.55
2022-09-05T21:18:58.413Z,43.74
2022-09-05T21:21:28.486Z,43.98
2022-09-05T21:24:16.051Z,43.55
2022-09-05T21:26:43.874Z,43.95
2022-09-05T21:29:16.432Z,43.93
2022-09-05T21:31:50.272Z,44.36
2022-09-05T21:34:24.631Z,43.78
2022-09-05T21:36:57.935Z,44.02
2022-09-05T21:39:59.308Z,44.42
2022-09-05T21:46:04.599Z,44.18
2022-09-05T21:47:49.982Z,44.48
2022-09-05T21:48:05.038Z,44.76
2022-09-05T21:50:40.191Z,44.62
2022-09-05T21:55:14.827Z,44.00
2022-09-05T21:59:19.875Z,44.65
2022-09-05T21:59:28.922Z,44.76
2022-09-05T22:01:52.774Z,45.07
2022-09-05T22:04:22.200Z,45.27
2022-09-05T22:06:49.684Z,44.80
2022-09-05T22:09:17.849Z,45.17
2022-09-05T22:11:50.395Z,45.52
2022-09-05T22:14:21.944Z,45.36
2022-09-05T22:16:50.869Z,45.70
2022-09-05T22:19:23.118Z,45.63
2022-09-05T22:21:59.891Z,45.68
2022-09-05T22:24:28.931Z,45.60
2022-09-05T22:27:11.515Z,46.15
2022-09-05T22:29:40.027Z,46.23
2022-09-05T22:32:07.440Z,46.00
2022-09-05T22:34:34.165Z,46.49
2022-09-05T22:37:00.838Z,46.37
2022-09-05T22:39:37.447Z,46.83
2022-09-05T22:42:10.035Z,46.76
2022-09-05T22:44:38.742Z,46.90
2022-09-05T22:47:06.723Z,47.20
2022-09-05T22:49:34.310Z,47.17
2022-09-05T22:52:01.051Z,47.31
2022-09-05T22:54:27.699Z,47.60
2022-09-05T22:56:54.334Z,47.15
2022-09-05T22:59:21.006Z,47.00
2022-09-05T23:01:51.303Z,47.13
2022-09-05T23:04:18.028Z,47.39
2022-09-05T23:06:44.723Z,47.26
2022-09-05T23:09:11.393Z,47.41
2022-09-05T23:11:38.129Z,47.76
2022-09-05T23:14:04.842Z,48.06
2022-09-05T23:16:31.463Z,48.27
2022-09-05T23:18:58.100Z,47.88
2022-09-05T23:21:24.817Z,47.78
2022-09-05T23:23:51.446Z,47.91
2022-09-05T23:26:18.064Z,47.92
2022-09-05T23:28:44.774Z,48.31
2022-09-05T23:31:12.221Z,48.45
2022-09-05T23:33:41.258Z,48.06
2022-09-05T23:36:10.053Z,48.58
2022-09-05T23:38:36.887Z,48.59
2022-09-05T23:41:08.700Z,49.10
2022-09-05T23:43:35.514Z,49.81
2022-09-05T23:46:02.823Z,50.03
2022-09-05T23:48:29.643Z,50.49
2022-09-05T23:50:56.650Z,51.70
2022-09-05T23:53:23.738Z,52.13
2022-09-05T23:55:50.427Z,52.09
2022-09-05T23:58:17.221Z,51.90
